createdAt,value
2023-03-24T00:00:01.229Z,4.8
2023-03-24T00:01:01.108Z,4.9
2023-03-24T00:02:01.122Z,4.9
2023-03-24T00:03:01.102Z,4.9
2023-03-24T00:04:01.163Z,4.8
2023-03-24T00:05:01.034Z,4.7
2023-03-24T00:06:01.038Z,4.7
2023-03-24T00:07:01.114Z,4.8
2023-03-24T00:08:02.467Z,4.8
2023-03-24T00:09:01.244Z,4.8
2023-03-24T00:10:01.457Z,4.9
2023-03-24T00:11:01.885Z,4.8
2023-03-24T00:12:01.759Z,4.7
2023-03-24T00:13:01.073Z,4.7
2023-03-24T00:14:01.107Z,4.7
2023-03-24T00:15:01.104Z,4.8
2023-03-24T00:16:01.540Z,4.8
2023-03-24T00:17:01.043Z,4.8
2023-03-24T00:18:01.208Z,4.8
2023-03-24T00:19:01.117Z,4.9
2023-03-24T00:20:01.135Z,4.9
2023-03-24T00:21:01.142Z,4.9
2023-03-24T00:22:01.049Z,4.9
2023-03-24T00:23:01.064Z,4.9
2023-03-24T00:24:01.101Z,5
2023-03-24T00:25:01.142Z,5
2023-03-24T00:26:01.066Z,5.1
2023-03-24T00:27:01.076Z,5
2023-03-24T00:28:01.077Z,5
2023-03-24T00:29:01.084Z,4.9
2023-03-24T00:30:01.106Z,5
2023-03-24T00:31:01.130Z,4.9
2023-03-24T00:32:01.225Z,5
2023-03-24T00:33:01.525Z,4.9
2023-03-24T00:34:01.234Z,4.8
2023-03-24T00:35:01.142Z,4.9
2023-03-24T00:36:01.162Z,5
2023-03-24T00:37:01.027Z,4.9
2023-03-24T00:38:01.030Z,5
2023-03-24T00:39:01.159Z,5
2023-03-24T00:40:01.181Z,5.1
2023-03-24T00:41:01.773Z,5
2023-03-24T00:42:01.061Z,5.1
2023-03-24T00:43:01.021Z,5.1
2023-03-24T00:44:01.171Z,5.1
2023-03-24T00:45:01.101Z,5.1
2023-03-24T00:46:01.307Z,5.2
2023-03-24T00:47:01.267Z,5.2
2023-03-24T00:48:01.980Z,5.2
2023-03-24T00:49:02.386Z,5.2
2023-03-24T00:50:01.048Z,5.3
2023-03-24T00:51:01.214Z,5.3
2023-03-24T00:52:01.031Z,5.3
2023-03-24T00:53:01.041Z,5.3
2023-03-24T00:54:01.448Z,5.3
2023-03-24T00:55:01.061Z,5.4
2023-03-24T00:56:02.825Z,5.4
2023-03-24T00:57:00.971Z,5.4
2023-03-24T00:58:00.655Z,5.5
2023-03-24T00:59:00.351Z,5.6
2023-03-24T00:59:59.966Z,5.5
2023-03-24T01:01:04.749Z,5.7
2023-03-24T01:02:01.442Z,5.7
2023-03-24T01:03:01.501Z,5.7
2023-03-24T01:04:01.220Z,5.6
2023-03-24T01:05:01.231Z,5.7
2023-03-24T01:06:07.852Z,5.7
2023-03-24T01:07:01.125Z,5.7
2023-03-24T01:08:01.156Z,5.7
2023-03-24T01:09:01.198Z,5.7
2023-03-24T01:10:01.046Z,5.6
2023-03-24T01:11:11.354Z,5.7
2023-03-24T01:12:01.171Z,5.7
2023-03-24T01:13:01.062Z,5.7
2023-03-24T01:14:03.750Z,5.6
2023-03-24T01:15:01.207Z,5.6
2023-03-24T01:16:13.694Z,5.7
2023-03-24T01:17:01.093Z,5.7
2023-03-24T01:18:01.127Z,5.6
2023-03-24T01:19:01.134Z,5.5
2023-03-24T01:20:01.828Z,5.5
2023-03-24T01:21:16.765Z,5.5
2023-03-24T01:22:01.312Z,5.5
2023-03-24T01:23:02.090Z,5.4
2023-03-24T01:24:02.862Z,5.5
2023-03-24T01:25:01.130Z,5.4
2023-03-24T01:26:01.057Z,5.4
2023-03-24T01:27:01.053Z,5.5
2023-03-24T01:28:01.799Z,5.4
2023-03-24T01:29:01.727Z,5.5
2023-03-24T01:30:01.698Z,5.4
2023-03-24T01:31:02.301Z,5.5
2023-03-24T01:32:01.183Z,5.5
2023-03-24T01:33:02.036Z,5.5
2023-03-24T01:34:01.290Z,5.4
2023-03-24T01:35:01.035Z,5.6
2023-03-24T01:36:01.136Z,5.6
2023-03-24T01:37:01.156Z,5.6
2023-03-24T01:38:01.418Z,5.6
2023-03-24T01:39:01.247Z,5.6
2023-03-24T01:40:01.201Z,5.6
2023-03-24T01:41:01.146Z,5.7
2023-03-24T01:42:01.480Z,5.7
2023-03-24T01:43:01.056Z,5.8
2023-03-24T01:44:01.072Z,5.9
2023-03-24T01:45:01.225Z,5.9
2023-03-24T01:46:01.155Z,5.9
2023-03-24T01:47:01.452Z,6
2023-03-24T01:48:01.054Z,6.1
2023-03-24T01:49:01.074Z,6
2023-03-24T01:50:01.081Z,6.2
2023-03-24T01:51:01.123Z,6.2
2023-03-24T01:52:01.089Z,6.2
2023-03-24T01:53:00.817Z,6.3
2023-03-24T01:54:01.116Z,6.3
2023-03-24T01:55:01.170Z,6.4
2023-03-24T01:56:01.198Z,6.3
2023-03-24T01:57:01.081Z,6.6
2023-03-24T01:58:01.045Z,6.6
2023-03-24T01:59:04.041Z,6.6
2023-03-24T02:00:01.758Z,6.8
2023-03-24T02:01:01.100Z,6.8
2023-03-24T02:02:00.604Z,6.8
2023-03-24T02:03:00.359Z,6.9
2023-03-24T02:04:00.163Z,6.9
2023-03-24T02:04:59.837Z,6.9
2023-03-24T02:06:02.093Z,7
2023-03-24T02:07:01.105Z,7
2023-03-24T02:08:01.100Z,7.1
2023-03-24T02:09:01.129Z,7.1
2023-03-24T02:10:01.141Z,7.1
2023-03-24T02:11:01.224Z,7.2
2023-03-24T02:12:01.271Z,7.2
2023-03-24T02:13:01.134Z,7.1
2023-03-24T02:14:01.044Z,7.2
2023-03-24T02:15:01.477Z,7.2
2023-03-24T02:16:01.475Z,7.1
2023-03-24T02:17:01.063Z,7.1
2023-03-24T02:18:01.234Z,7.1
2023-03-24T02:19:01.237Z,7.1
2023-03-24T02:20:02.001Z,7.1
2023-03-24T02:21:02.038Z,7.1
2023-03-24T02:22:02.121Z,7
2023-03-24T02:23:01.177Z,7.1
2023-03-24T02:24:01.166Z,7.1
2023-03-24T02:25:01.115Z,7
2023-03-24T02:26:01.139Z,7.1
2023-03-24T02:27:01.124Z,7
2023-03-24T02:28:01.118Z,7
2023-03-24T02:29:01.030Z,7
2023-03-24T02:30:01.049Z,7
2023-03-24T02:31:01.085Z,6.9
2023-03-24T02:32:01.197Z,7
2023-03-24T02:33:01.210Z,6.9
2023-03-24T02:34:01.304Z,7
2023-03-24T02:35:02.138Z,6.9
2023-03-24T02:36:01.220Z,6.9
2023-03-24T02:37:01.038Z,6.9
2023-03-24T02:38:01.055Z,6.9
2023-03-24T02:39:01.160Z,6.9
2023-03-24T02:40:01.106Z,6.9
2023-03-24T02:41:01.131Z,6.9
2023-03-24T02:42:01.287Z,6.7
2023-03-24T02:43:01.704Z,6.6
2023-03-24T02:44:02.114Z,6.7
2023-03-24T02:45:01.986Z,6.8
2023-03-24T02:46:01.776Z,6.8
2023-03-24T02:47:04.432Z,6.7
2023-03-24T02:48:01.490Z,6.6
2023-03-24T02:49:01.082Z,6.5
2023-03-24T02:50:01.398Z,6.5
2023-03-24T02:51:01.390Z,6.5
2023-03-24T02:52:07.229Z,6.4
2023-03-24T02:53:01.255Z,6.4
2023-03-24T02:54:01.931Z,6.5
2023-03-24T02:55:01.900Z,6.4
2023-03-24T02:56:01.104Z,6.5
2023-03-24T02:57:10.370Z,6.4
2023-03-24T02:58:01.115Z,6.5
2023-03-24T02:59:00.843Z,6.4
2023-03-24T03:00:00.403Z,6.4
2023-03-24T03:01:00.009Z,6.3
2023-03-24T03:02:12.129Z,6.3
2023-03-24T03:03:01.086Z,6.3
2023-03-24T03:04:01.071Z,6.4
2023-03-24T03:05:01.097Z,6.3
2023-03-24T03:06:01.070Z,6.2
2023-03-24T03:07:14.945Z,6.2
2023-03-24T03:08:01.118Z,6.2
2023-03-24T03:09:01.528Z,6.1
2023-03-24T03:10:01.096Z,6.2
2023-03-24T03:11:01.144Z,6.1
2023-03-24T03:12:01.103Z,6.1
2023-03-24T03:13:01.120Z,6.1
2023-03-24T03:14:01.126Z,6
2023-03-24T03:15:01.119Z,6
2023-03-24T03:16:01.223Z,6
2023-03-24T03:17:01.182Z,6
2023-03-24T03:18:02.145Z,6.1
2023-03-24T03:19:01.022Z,6.2
2023-03-24T03:20:01.046Z,6.2
2023-03-24T03:21:01.051Z,6.2
2023-03-24T03:22:01.080Z,6.1
2023-03-24T03:23:01.084Z,6.3
2023-03-24T03:24:01.261Z,6.3
2023-03-24T03:25:01.457Z,6.3
2023-03-24T03:26:01.105Z,6.4
2023-03-24T03:27:01.122Z,6.4
2023-03-24T03:28:01.118Z,6.4
2023-03-24T03:29:01.419Z,6.6
2023-03-24T03:30:02.566Z,6.7
2023-03-24T03:31:02.588Z,6.7
2023-03-24T03:32:01.266Z,6.6
2023-03-24T03:33:02.844Z,6.7
2023-03-24T03:34:01.065Z,6.6
2023-03-24T03:35:01.051Z,6.9
2023-03-24T03:36:01.079Z,6.9
2023-03-24T03:37:01.101Z,6.7
2023-03-24T03:38:01.237Z,7
2023-03-24T03:39:01.465Z,7.1
2023-03-24T03:40:08.098Z,7
2023-03-24T03:41:02.101Z,7.3
2023-03-24T03:42:01.905Z,7
2023-03-24T03:43:01.112Z,7.1
2023-03-24T03:44:01.132Z,7
2023-03-24T03:45:01.207Z,7.1
2023-03-24T03:46:01.222Z,7.3
2023-03-24T03:47:01.132Z,7.2
2023-03-24T03:48:01.545Z,7.3
2023-03-24T03:49:01.047Z,7.3
2023-03-24T03:50:01.052Z,7.5
2023-03-24T03:51:13.168Z,7.5
2023-03-24T03:52:01.055Z,7.7
2023-03-24T03:53:01.085Z,7.7
2023-03-24T03:54:01.208Z,7.9
2023-03-24T03:55:01.319Z,8.2
2023-03-24T03:56:01.125Z,8.2
2023-03-24T03:57:01.503Z,8.4
2023-03-24T03:58:01.090Z,8.5
2023-03-24T03:59:01.786Z,8.8
2023-03-24T04:00:01.120Z,9.5
2023-03-24T04:01:01.119Z,9.4
2023-03-24T04:02:01.833Z,9.4
2023-03-24T04:03:02.606Z,9.6
2023-03-24T04:04:01.296Z,9.6
2023-03-24T04:05:06.613Z,9.8
2023-03-24T04:06:02.064Z,10.1
2023-03-24T04:07:01.029Z,10.3
2023-03-24T04:08:01.050Z,10.5
2023-03-24T04:09:01.044Z,10.8
2023-03-24T04:10:01.853Z,10.8
2023-03-24T04:11:01.098Z,11
2023-03-24T04:12:01.091Z,11.7
2023-03-24T04:13:01.931Z,11.9
2023-03-24T04:14:01.385Z,12.1
2023-03-24T04:15:01.430Z,12.4
2023-03-24T04:16:02.202Z,12.6
2023-03-24T04:17:01.107Z,12.9
2023-03-24T04:18:00.820Z,13.4
2023-03-24T04:19:00.558Z,13.7
2023-03-24T04:20:00.244Z,14
2023-03-24T04:21:00.098Z,14
2023-03-24T04:22:00.030Z,14.6
2023-03-24T04:23:01.170Z,14.6
2023-03-24T04:24:01.453Z,14.9
2023-03-24T04:25:02.150Z,15.1
2023-03-24T04:26:01.099Z,15.3
2023-03-24T04:27:01.091Z,15.6
2023-03-24T04:28:04.352Z,15.9
2023-03-24T04:29:01.089Z,16
2023-03-24T04:30:01.167Z,16.4
2023-03-24T04:31:00.830Z,16.6
2023-03-24T04:32:01.145Z,16.8
2023-03-24T04:33:08.048Z,17.1
2023-03-24T04:34:01.282Z,17.3
2023-03-24T04:35:00.684Z,17.6
2023-03-24T04:36:00.325Z,17.7
2023-03-24T04:36:59.892Z,18.2
2023-03-24T04:38:08.877Z,18.8
2023-03-24T04:39:01.091Z,18.9
2023-03-24T04:40:01.354Z,19.3
2023-03-24T04:41:01.458Z,19.4
2023-03-24T04:42:01.168Z,19.6
2023-03-24T04:43:12.768Z,19.6
2023-03-24T04:44:01.095Z,19.9
2023-03-24T04:45:01.697Z,20.3
2023-03-24T04:46:01.961Z,20.1
2023-03-24T04:47:01.130Z,20.3
2023-03-24T04:48:16.363Z,20.2
2023-03-24T04:49:01.795Z,20.3
2023-03-24T04:50:01.513Z,20.7
2023-03-24T04:51:01.249Z,20.5
2023-03-24T04:52:01.170Z,20.4
2023-03-24T04:53:01.851Z,20.6
2023-03-24T04:54:01.768Z,20.9
2023-03-24T04:55:01.451Z,21.5
2023-03-24T04:56:01.076Z,21.7
2023-03-24T04:57:01.110Z,21.8
2023-03-24T04:58:00.769Z,21.8
2023-03-24T04:59:00.468Z,22.1
2023-03-24T05:00:00.150Z,22.5
2023-03-24T05:00:59.923Z,22.4
2023-03-24T05:01:59.652Z,22.5
2023-03-24T05:03:01.323Z,22.7
2023-03-24T05:04:02.164Z,22.8
2023-03-24T05:05:01.035Z,22.8
2023-03-24T05:06:01.161Z,22.9
2023-03-24T05:07:02.063Z,23.1
2023-03-24T05:08:01.179Z,23.5
2023-03-24T05:09:01.423Z,23.5
2023-03-24T05:10:02.721Z,23.7
2023-03-24T05:11:01.038Z,23.7
2023-03-24T05:12:01.892Z,23.8
2023-03-24T05:13:01.067Z,23.8
2023-03-24T05:14:01.082Z,23.7
2023-03-24T05:15:01.794Z,24.1
2023-03-24T05:16:00.858Z,24.2
2023-03-24T05:17:01.102Z,24.2
2023-03-24T05:18:01.518Z,24.1
2023-03-24T05:19:00.903Z,24.3
2023-03-24T05:20:00.633Z,24.3
2023-03-24T05:21:00.292Z,24.4
2023-03-24T05:21:59.916Z,24.6
2023-03-24T05:22:59.489Z,24.6
2023-03-24T05:24:01.128Z,24.5
2023-03-24T05:25:01.400Z,24.5
2023-03-24T05:26:01.467Z,24.6
2023-03-24T05:27:01.516Z,24.6
2023-03-24T05:28:01.200Z,24.6
2023-03-24T05:29:01.111Z,24.8
2023-03-24T05:30:00.703Z,24.5
2023-03-24T05:31:00.406Z,24.3
2023-03-24T05:32:00.112Z,24.6
2023-03-24T05:32:59.818Z,24.5
2023-03-24T05:34:01.491Z,24.5
2023-03-24T05:35:04.630Z,24.4
2023-03-24T05:36:01.250Z,24.3
2023-03-24T05:37:01.333Z,24.4
2023-03-24T05:38:01.828Z,24.6
2023-03-24T05:39:01.110Z,25
2023-03-24T05:40:00.844Z,24.9
2023-03-24T05:41:00.413Z,24.7
2023-03-24T05:42:00.017Z,24.5
2023-03-24T05:42:59.717Z,24.3
2023-03-24T05:44:01.985Z,24.1
2023-03-24T05:45:01.947Z,24.1
2023-03-24T05:46:01.123Z,24.3
2023-03-24T05:47:01.183Z,24.1
2023-03-24T05:48:01.098Z,24.1
2023-03-24T05:49:01.416Z,23.9
2023-03-24T05:50:01.874Z,23.8
2023-03-24T05:51:01.336Z,23.6
2023-03-24T05:52:01.700Z,23.6
2023-03-24T05:53:01.168Z,23.5
2023-03-24T05:54:01.119Z,23.3
2023-03-24T05:55:01.411Z,23.8
2023-03-24T05:56:01.197Z,23.6
2023-03-24T05:57:01.198Z,23.4
2023-03-24T05:58:01.426Z,23.2
2023-03-24T05:59:00.944Z,23.1
2023-03-24T06:00:01.117Z,23.2
2023-03-24T06:01:01.066Z,23.3
2023-03-24T06:02:01.287Z,23.3
2023-03-24T06:03:03.463Z,23.5
2023-03-24T06:04:02.223Z,23.3
2023-03-24T06:05:01.600Z,23.4
2023-03-24T06:06:02.108Z,23.1
2023-03-24T06:07:01.110Z,23.1
2023-03-24T06:08:01.124Z,22.9
2023-03-24T06:09:06.151Z,23
2023-03-24T06:10:01.518Z,22.8
2023-03-24T06:11:01.613Z,23.1
2023-03-24T06:12:01.349Z,23.1
2023-03-24T06:13:01.033Z,23
2023-03-24T06:14:01.076Z,23.1
2023-03-24T06:15:01.085Z,23.1
2023-03-24T06:16:03.715Z,23.5
2023-03-24T06:17:01.168Z,23.6
2023-03-24T06:18:01.147Z,23.6
2023-03-24T06:19:00.857Z,23.7
2023-03-24T06:20:01.103Z,24
2023-03-24T06:21:00.768Z,24.1
2023-03-24T06:22:00.400Z,24.2
2023-03-24T06:23:00.220Z,24.4
2023-03-24T06:23:59.968Z,24.6
2023-03-24T06:25:01.491Z,25
2023-03-24T06:26:01.228Z,25
2023-03-24T06:27:01.205Z,25.2
2023-03-24T06:28:01.044Z,24.9
2023-03-24T06:29:01.028Z,25
2023-03-24T06:30:01.070Z,25.2
2023-03-24T06:31:01.130Z,25
2023-03-24T06:32:01.050Z,25.1
2023-03-24T06:33:01.068Z,25
2023-03-24T06:34:01.065Z,25
2023-03-24T06:35:00.762Z,25.1
2023-03-24T06:36:00.498Z,25.3
2023-03-24T06:37:00.166Z,25
2023-03-24T06:37:59.767Z,25
2023-03-24T06:39:01.510Z,24.9
2023-03-24T06:40:01.116Z,24.8
2023-03-24T06:41:01.108Z,24.8
2023-03-24T06:42:01.136Z,24.6
2023-03-24T06:43:01.058Z,24.7
2023-03-24T06:44:01.240Z,24.9
2023-03-24T06:45:01.218Z,24.7
2023-03-24T06:46:01.211Z,24.4
2023-03-24T06:47:08.009Z,24.4
2023-03-24T06:48:03.516Z,24.6
2023-03-24T06:49:01.073Z,24.4
2023-03-24T06:50:00.652Z,24.5
2023-03-24T06:51:00.261Z,24.4
2023-03-24T06:51:59.860Z,24.5
2023-03-24T06:53:06.571Z,24.2
2023-03-24T06:54:01.221Z,23.7
2023-03-24T06:55:02.705Z,23.5
2023-03-24T06:56:01.499Z,23.7
2023-03-24T06:57:01.166Z,23.4
2023-03-24T06:58:10.275Z,23.3
2023-03-24T06:59:00.918Z,22.8
2023-03-24T07:00:01.523Z,22.5
2023-03-24T07:01:01.967Z,22.2
2023-03-24T07:02:01.099Z,22.1
2023-03-24T07:03:13.806Z,21.8
2023-03-24T07:04:01.108Z,21.7
2023-03-24T07:05:01.055Z,21.5
2023-03-24T07:06:01.025Z,21.4
2023-03-24T07:07:22.522Z,21.1
2023-03-24T07:08:36.329Z,20.7
2023-03-24T07:09:01.483Z,20.4
2023-03-24T07:10:01.110Z,20.6
2023-03-24T07:11:01.136Z,20.3
2023-03-24T07:12:01.817Z,20.1
2023-03-24T07:13:01.929Z,20
2023-03-24T07:14:02.598Z,20
2023-03-24T07:15:01.316Z,19.8
2023-03-24T07:16:01.220Z,19.7
2023-03-24T07:17:01.202Z,19.5
2023-03-24T07:18:01.381Z,19.2
2023-03-24T07:19:00.945Z,19.2
2023-03-24T07:20:01.051Z,19.2
2023-03-24T07:21:01.058Z,18.8
2023-03-24T07:22:01.081Z,18.8
2023-03-24T07:23:01.074Z,18.3
2023-03-24T07:24:01.086Z,18.3
2023-03-24T07:25:01.339Z,18.1
2023-03-24T07:26:01.596Z,18
2023-03-24T07:27:01.476Z,17.5
2023-03-24T07:28:04.296Z,17.3
2023-03-24T07:29:01.192Z,17.4
2023-03-24T07:30:01.738Z,17.3
2023-03-24T07:31:01.448Z,17.2
2023-03-24T07:32:02.642Z,16.3
2023-03-24T07:33:01.201Z,16.3
2023-03-24T07:34:02.294Z,15.8
2023-03-24T07:35:04.481Z,14.7
2023-03-24T07:36:04.947Z,14.4
2023-03-24T07:37:02.156Z,14.3
2023-03-24T07:38:02.084Z,14.7
2023-03-24T07:39:01.084Z,14.7
2023-03-24T07:40:01.115Z,14.5
2023-03-24T07:41:01.094Z,14
2023-03-24T07:42:01.111Z,13.6
2023-03-24T07:43:01.096Z,13
2023-03-24T07:44:01.494Z,12.8
2023-03-24T07:45:01.689Z,13.1
2023-03-24T07:46:01.336Z,12.8
2023-03-24T07:47:01.036Z,13.9
2023-03-24T07:48:01.049Z,13.8
2023-03-24T07:49:12.251Z,14.2
2023-03-24T07:50:01.735Z,13.9
2023-03-24T07:51:01.451Z,13.5
2023-03-24T07:52:01.139Z,13.5
2023-03-24T07:53:01.076Z,13.8
2023-03-24T07:54:01.100Z,13.4
2023-03-24T07:55:01.035Z,13.1
2023-03-24T07:56:01.026Z,13.1
2023-03-24T07:57:01.607Z,13.4
2023-03-24T07:58:01.501Z,13.1
2023-03-24T07:59:02.360Z,13.3
2023-03-24T08:00:01.208Z,13.3
2023-03-24T08:01:01.160Z,12.9
2023-03-24T08:02:01.227Z,13.2
2023-03-24T08:03:01.879Z,13.1
2023-03-24T08:04:02.192Z,14.1
2023-03-24T08:05:01.040Z,13.7
2023-03-24T08:06:01.318Z,12.9
2023-03-24T08:07:01.087Z,13.5
2023-03-24T08:08:01.087Z,13.1
2023-03-24T08:09:01.469Z,12.6
2023-03-24T08:10:01.063Z,12.6
2023-03-24T08:11:01.082Z,13
2023-03-24T08:12:09.929Z,12.7
2023-03-24T08:13:01.035Z,12.5
2023-03-24T08:14:00.674Z,13.4
2023-03-24T08:15:00.685Z,12.9
2023-03-24T08:16:00.314Z,12.6
2023-03-24T08:16:59.896Z,13.1
2023-03-24T08:17:59.629Z,13.8
2023-03-24T08:19:03.334Z,13.6
2023-03-24T08:20:03.274Z,12.4
2023-03-24T08:21:02.568Z,11.8
2023-03-24T08:22:01.089Z,11.8
2023-03-24T08:23:01.058Z,12.7
2023-03-24T08:24:06.480Z,12.5
2023-03-24T08:25:01.071Z,12
2023-03-24T08:26:01.067Z,11.7
2023-03-24T08:27:01.075Z,11.7
2023-03-24T08:28:01.089Z,12.2
2023-03-24T08:29:08.996Z,11
2023-03-24T08:30:01.926Z,11.6
2023-03-24T08:31:01.534Z,10.6
2023-03-24T08:32:01.347Z,10.6
2023-03-24T08:33:01.186Z,10.9
2023-03-24T08:34:13.962Z,9.9
2023-03-24T08:35:01.934Z,9.9
2023-03-24T08:36:01.205Z,9.8
2023-03-24T08:37:01.037Z,10.2
2023-03-24T08:38:01.131Z,9.8
2023-03-24T08:39:15.993Z,9.5
2023-03-24T08:40:01.450Z,9.2
2023-03-24T08:41:01.097Z,10.3
2023-03-24T08:42:01.090Z,9.2
2023-03-24T08:43:01.102Z,9.1
2023-03-24T08:44:01.105Z,9.1
2023-03-24T08:45:00.800Z,8.2
2023-03-24T08:46:00.501Z,8.5
2023-03-24T08:47:00.290Z,8.3
2023-03-24T08:48:00.376Z,7.9
2023-03-24T08:48:59.978Z,8.9
2023-03-24T08:49:59.571Z,8.5
2023-03-24T08:51:01.171Z,8.2
2023-03-24T08:52:01.164Z,8.1
2023-03-24T08:53:01.755Z,7.1
2023-03-24T08:54:01.066Z,6.7
2023-03-24T08:55:01.062Z,6.4
2023-03-24T08:56:01.059Z,6.7
2023-03-24T08:57:01.342Z,6.6
2023-03-24T08:58:02.413Z,6.7
2023-03-24T08:59:02.151Z,6.8
2023-03-24T09:00:01.540Z,5.8
2023-03-24T09:01:01.280Z,5.5
2023-03-24T09:02:02.142Z,5.8
2023-03-24T09:03:02.110Z,6.2
2023-03-24T09:04:01.033Z,5.5
2023-03-24T09:05:01.104Z,4.9
2023-03-24T09:06:01.217Z,5.4
2023-03-24T09:07:03.030Z,5.2
2023-03-24T09:08:01.145Z,4
2023-03-24T09:09:01.140Z,4.1
2023-03-24T09:10:01.071Z,4.4
2023-03-24T09:11:01.039Z,4.5
2023-03-24T09:12:01.063Z,3.8
2023-03-24T09:13:01.054Z,3.9
2023-03-24T09:14:01.059Z,3.4
2023-03-24T09:15:00.618Z,3.6
2023-03-24T09:16:00.237Z,3.5
2023-03-24T09:16:59.947Z,3.8
2023-03-24T09:17:59.836Z,4.1
2023-03-24T09:18:59.450Z,3.9
2023-03-24T09:20:02.585Z,4.5
2023-03-24T09:21:02.543Z,3.9
2023-03-24T09:22:01.849Z,3.6
2023-03-24T09:23:01.583Z,3.9
2023-03-24T09:24:01.149Z,4.5
2023-03-24T09:25:01.270Z,4.4
2023-03-24T09:26:01.258Z,4.9
2023-03-24T09:27:01.274Z,5.8
2023-03-24T09:28:01.024Z,4.8
2023-03-24T09:29:01.027Z,5
2023-03-24T09:30:01.034Z,5
2023-03-24T09:31:01.163Z,6
2023-03-24T09:32:01.071Z,6.1
2023-03-24T09:33:01.159Z,5.8
2023-03-24T09:34:03.781Z,6.1
2023-03-24T09:35:01.098Z,6.8
2023-03-24T09:36:01.509Z,7.2
2023-03-24T09:37:01.232Z,7.1
2023-03-24T09:38:01.124Z,7.6
2023-03-24T09:39:01.411Z,8
2023-03-24T09:40:01.063Z,7.1
2023-03-24T09:41:01.117Z,7.6
2023-03-24T09:42:01.036Z,7.9
2023-03-24T09:43:01.063Z,8.1
2023-03-24T09:44:01.277Z,8.3
2023-03-24T09:45:03.847Z,8.4
2023-03-24T09:46:01.093Z,8.9
2023-03-24T09:47:01.129Z,9.3
2023-03-24T09:48:01.108Z,9.9
2023-03-24T09:49:01.093Z,9.4
2023-03-24T09:50:01.326Z,10
2023-03-24T09:51:01.084Z,10.1
2023-03-24T09:52:01.216Z,9.7
2023-03-24T09:53:01.230Z,9.9
2023-03-24T09:54:01.247Z,11.2
2023-03-24T09:55:01.116Z,9.9
2023-03-24T09:56:01.145Z,9.7
2023-03-24T09:57:01.060Z,9.3
2023-03-24T09:58:01.040Z,9.1
2023-03-24T09:59:01.069Z,9.8
2023-03-24T10:00:01.522Z,9.7
2023-03-24T10:01:01.217Z,9.2
2023-03-24T10:02:01.075Z,8.6
2023-03-24T10:03:01.231Z,8.4
2023-03-24T10:04:01.282Z,8.3
2023-03-24T10:05:04.255Z,7.7
2023-03-24T10:06:02.110Z,7
2023-03-24T10:07:01.129Z,6.6
2023-03-24T10:08:01.154Z,6
2023-03-24T10:09:01.112Z,6.7
2023-03-24T10:10:06.532Z,6.6
2023-03-24T10:11:01.141Z,6.1
2023-03-24T10:12:01.128Z,5.9
2023-03-24T10:13:01.029Z,5.9
2023-03-24T10:14:03.144Z,6.2
2023-03-24T10:15:08.413Z,5.8
2023-03-24T10:16:01.993Z,6
2023-03-24T10:17:01.093Z,6.3
2023-03-24T10:18:01.163Z,5.9
2023-03-24T10:19:01.122Z,5.4
2023-03-24T10:20:11.653Z,5.3
2023-03-24T10:21:01.086Z,4.8
2023-03-24T10:23:01.121Z,4.3
2023-03-24T10:24:01.259Z,4.3
2023-03-24T10:25:14.369Z,4
2023-03-24T10:26:01.170Z,4.2
2023-03-24T10:27:01.560Z,4.6
2023-03-24T10:28:01.253Z,4.5
2023-03-24T10:29:01.047Z,3.2
2023-03-24T10:30:01.051Z,2.8
2023-03-24T10:31:00.791Z,3.1
2023-03-24T10:32:00.445Z,3
2023-03-24T10:33:00.047Z,2.7
2023-03-24T10:33:59.655Z,2.6
2023-03-24T10:35:01.192Z,2.9
2023-03-24T10:36:01.096Z,2.7
2023-03-24T10:37:01.156Z,3
2023-03-24T10:38:01.110Z,2.4
2023-03-24T10:39:12.624Z,2.3
2023-03-24T10:40:01.119Z,2.4
2023-03-24T10:41:01.133Z,2.4
2023-03-24T10:42:01.122Z,2.7
2023-03-24T10:43:07.302Z,2
2023-03-24T10:44:01.028Z,1.4
2023-03-24T10:45:01.048Z,1
2023-03-24T10:46:00.755Z,1.8
2023-03-24T10:47:00.301Z,1
2023-03-24T10:47:59.909Z,1
2023-03-24T10:48:59.512Z,1.1
2023-03-24T10:50:14.445Z,1.1
2023-03-24T10:51:02.188Z,1.2
2023-03-24T10:52:01.336Z,1
2023-03-24T10:53:02.534Z,1
2023-03-24T10:54:03.266Z,1
2023-03-24T10:55:01.119Z,1
2023-03-24T10:56:01.123Z,1
2023-03-24T10:57:01.443Z,1
2023-03-24T10:58:02.585Z,1
2023-03-24T10:59:01.249Z,1
2023-03-24T11:00:02.127Z,1
2023-03-24T11:01:01.111Z,1
2023-03-24T11:02:01.892Z,1
2023-03-24T11:03:01.966Z,1
2023-03-24T11:04:01.055Z,1
2023-03-24T11:05:01.225Z,1
2023-03-24T11:06:02.132Z,1
2023-03-24T11:07:02.635Z,1
2023-03-24T11:08:01.098Z,1
2023-03-24T11:09:01.102Z,1
2023-03-24T11:10:01.128Z,1
2023-03-24T11:11:01.361Z,1
2023-03-24T11:12:02.019Z,1
2023-03-24T11:13:01.696Z,1
2023-03-24T11:14:01.699Z,1
2023-03-24T11:15:17.659Z,1
2023-03-24T11:16:01.027Z,1
2023-03-24T11:17:01.200Z,1
2023-03-24T11:18:01.894Z,1
2023-03-24T11:19:01.487Z,1
2023-03-24T11:20:01.154Z,1
2023-03-24T11:21:01.436Z,1
2023-03-24T11:22:02.097Z,1
2023-03-24T11:23:01.131Z,1
2023-03-24T11:24:01.083Z,1
2023-03-24T11:25:01.106Z,1
2023-03-24T11:26:01.099Z,1
2023-03-24T11:27:01.559Z,1
2023-03-24T11:28:01.583Z,1
2023-03-24T11:29:01.176Z,1
2023-03-24T11:30:01.835Z,1
2023-03-24T11:31:01.599Z,1
2023-03-24T11:32:01.152Z,1
2023-03-24T11:33:01.097Z,1
2023-03-24T11:34:01.162Z,1
2023-03-24T11:35:02.145Z,1
2023-03-24T11:36:05.521Z,1
2023-03-24T11:37:01.133Z,1
2023-03-24T11:38:01.086Z,1
2023-03-24T11:39:01.091Z,1
2023-03-24T11:40:01.181Z,1
2023-03-24T11:41:01.612Z,1
2023-03-24T11:42:02.320Z,1
2023-03-24T11:43:01.201Z,1
2023-03-24T11:44:01.116Z,1
2023-03-24T11:45:01.132Z,1
2023-03-24T11:46:05.077Z,1
2023-03-24T11:47:01.385Z,1
2023-03-24T11:48:01.213Z,1
2023-03-24T11:49:01.141Z,1
2023-03-24T11:50:01.365Z,1
2023-03-24T11:51:08.481Z,1
2023-03-24T11:52:01.236Z,1
2023-03-24T11:53:01.855Z,1
2023-03-24T11:54:01.906Z,1
2023-03-24T11:55:02.175Z,1
2023-03-24T11:56:13.383Z,1
2023-03-24T11:57:01.169Z,1
2023-03-24T11:58:01.108Z,1
2023-03-24T11:59:01.279Z,1
2023-03-24T12:00:01.047Z,1
2023-03-24T12:01:16.199Z,1
2023-03-24T12:02:01.536Z,1
2023-03-24T12:03:01.241Z,1
2023-03-24T12:04:01.207Z,1
2023-03-24T12:05:01.044Z,1
2023-03-24T12:06:01.410Z,1
2023-03-24T12:07:01.062Z,1
2023-03-24T12:08:01.060Z,1
2023-03-24T12:09:01.062Z,1
2023-03-24T12:10:01.439Z,1
2023-03-24T12:11:01.993Z,1
2023-03-24T12:12:01.096Z,1
2023-03-24T12:13:01.105Z,1
2023-03-24T12:14:00.691Z,1
2023-03-24T12:15:00.244Z,1
2023-03-24T12:16:00.056Z,1
2023-03-24T12:16:59.671Z,1
2023-03-24T12:18:01.376Z,1
2023-03-24T12:19:02.055Z,1
2023-03-24T12:20:01.288Z,1
2023-03-24T12:21:01.035Z,1
2023-03-24T12:22:01.048Z,1
2023-03-24T12:23:01.324Z,1
2023-03-24T12:24:01.460Z,1
2023-03-24T12:25:02.398Z,1
2023-03-24T12:26:01.064Z,1
2023-03-24T12:27:01.087Z,1
2023-03-24T12:28:01.223Z,1
2023-03-24T12:29:01.087Z,1
2023-03-24T12:30:01.097Z,1
2023-03-24T12:31:01.221Z,1
2023-03-24T12:32:01.474Z,1
2023-03-24T12:33:01.045Z,1
2023-03-24T12:34:01.240Z,1
2023-03-24T12:35:00.845Z,1
2023-03-24T12:36:00.544Z,1
2023-03-24T12:37:00.152Z,1
2023-03-24T12:37:59.811Z,1
2023-03-24T12:39:01.420Z,1
2023-03-24T12:40:01.701Z,1
2023-03-24T12:41:01.416Z,1
2023-03-24T12:42:01.081Z,1
2023-03-24T12:43:01.084Z,1
2023-03-24T12:44:01.043Z,1
2023-03-24T12:45:01.095Z,1
2023-03-24T12:46:01.201Z,1
2023-03-24T12:47:02.337Z,1
2023-03-24T12:48:01.554Z,1
2023-03-24T12:49:02.211Z,1
2023-03-24T12:50:01.441Z,1
2023-03-24T12:51:01.122Z,1
2023-03-24T12:52:01.032Z,1
2023-03-24T12:54:01.667Z,1
2023-03-24T12:55:01.443Z,1
2023-03-24T12:56:01.181Z,1
2023-03-24T12:57:01.113Z,1
2023-03-24T12:58:03.840Z,1
2023-03-24T12:59:01.847Z,1
2023-03-24T13:00:01.934Z,1
2023-03-24T13:01:01.130Z,1
2023-03-24T13:02:01.209Z,1
2023-03-24T13:03:01.995Z,1
2023-03-24T13:04:01.966Z,1.3
2023-03-24T13:05:01.039Z,1.9
2023-03-24T13:06:10.960Z,2.4
2023-03-24T13:07:01.139Z,2
2023-03-24T13:08:01.046Z,3.2
2023-03-24T13:09:01.241Z,3.7
2023-03-24T13:10:01.237Z,3.7
2023-03-24T13:11:01.178Z,4.1
2023-03-24T13:12:01.166Z,4.5
2023-03-24T13:13:01.104Z,5.2
2023-03-24T13:14:01.382Z,5.9
2023-03-24T13:15:01.079Z,5.8
2023-03-24T13:16:00.848Z,5.4
2023-03-24T13:17:01.131Z,5.6
2023-03-24T13:18:01.137Z,6.3
2023-03-24T13:19:01.114Z,6.7
2023-03-24T13:20:01.129Z,6.8
2023-03-24T13:21:01.414Z,6.4
2023-03-24T13:22:02.013Z,6.5
2023-03-24T13:23:02.034Z,6.8
2023-03-24T13:24:01.046Z,7.1
2023-03-24T13:25:01.044Z,6.7
2023-03-24T13:26:01.044Z,7
2023-03-24T13:27:04.626Z,7.3
2023-03-24T13:28:01.221Z,7.1
2023-03-24T13:29:01.141Z,7.6
2023-03-24T13:30:01.164Z,7.9
2023-03-24T13:31:01.166Z,7.8
2023-03-24T13:32:07.299Z,7.6
2023-03-24T13:33:01.247Z,7.5
2023-03-24T13:34:01.917Z,7.5
2023-03-24T13:35:01.926Z,6.8
2023-03-24T13:36:01.136Z,6.5
2023-03-24T13:37:10.398Z,5.8
2023-03-24T13:38:01.463Z,6.2
2023-03-24T13:39:02.056Z,6.4
2023-03-24T13:40:01.297Z,6.6
2023-03-24T13:41:01.276Z,5.9
2023-03-24T13:42:12.510Z,5.7
2023-03-24T13:43:01.974Z,5.2
2023-03-24T13:44:01.143Z,5.5
2023-03-24T13:45:00.674Z,5.6
2023-03-24T13:46:00.421Z,6
2023-03-24T13:47:15.261Z,6.4
2023-03-24T13:48:01.361Z,6.9
2023-03-24T13:49:01.728Z,6.5
2023-03-24T13:50:01.095Z,6.4
2023-03-24T13:51:01.038Z,7
2023-03-24T13:52:01.143Z,6.9